sensor_id;sensor_type;location;lat;lon;timestamp;P1;durP1;ratioP1;P2;durP2;ratioP2
68947;SDS011;55996;49.546;7.400;2022-08-19T00:00:06;17.10;;;15.50;;
68947;SDS011;55996;49.546;7.400;2022-08-19T00:02:34;16.20;;;14.60;;
68947;SDS011;55996;49.546;7.400;2022-08-19T00:05:01;16.93;;;15.30;;
68947;SDS011;55996;49.546;7.400;2022-08-19T00:07:27;16.20;;;14.67;;
68947;SDS011;55996;49.546;7.400;2022-08-19T00:09:52;16.20;;;14.63;;
68947;SDS011;55996;49.546;7.400;2022-08-19T00:12:18;16.27;;;14.87;;
68947;SDS011;55996;49.546;7.400;2022-08-19T00:14:44;15.57;;;14.13;;
68947;SDS011;55996;49.546;7.400;2022-08-19T00:17:09;14.97;;;13.67;;
68947;SDS011;55996;49.546;7.400;2022-08-19T00:19:35;15.20;;;13.70;;
68947;SDS011;55996;49.546;7.400;2022-08-19T00:22:01;15.87;;;14.47;;
68947;SDS011;55996;49.546;7.400;2022-08-19T00:24:27;14.97;;;13.60;;
68947;SDS011;55996;49.546;7.400;2022-08-19T00:26:53;14.60;;;13.40;;
68947;SDS011;55996;49.546;7.400;2022-08-19T00:29:21;14.60;;;13.30;;
68947;SDS011;55996;49.546;7.400;2022-08-19T00:31:48;14.90;;;13.50;;
68947;SDS011;55996;49.546;7.400;2022-08-19T00:34:15;15.27;;;13.77;;
68947;SDS011;55996;49.546;7.400;2022-08-19T00:36:41;14.30;;;12.97;;
68947;SDS011;55996;49.546;7.400;2022-08-19T00:39:07;14.97;;;13.73;;
68947;SDS011;55996;49.546;7.400;2022-08-19T00:41:33;14.30;;;12.80;;
68947;SDS011;55996;49.546;7.400;2022-08-19T00:46:34;14.47;;;12.97;;
68947;SDS011;55996;49.546;7.400;2022-08-19T00:49:06;14.53;;;13.23;;
68947;SDS011;55996;49.546;7.400;2022-08-19T00:51:39;14.43;;;13.17;;
68947;SDS011;55996;49.546;7.400;2022-08-19T00:54:07;13.43;;;12.23;;
68947;SDS011;55996;49.546;7.400;2022-08-19T00:56:34;14.50;;;13.20;;
68947;SDS011;55996;49.546;7.400;2022-08-19T00:59:00;14.13;;;12.73;;
68947;SDS011;55996;49.546;7.400;2022-08-19T01:01:35;14.93;;;13.53;;
68947;SDS011;55996;49.546;7.400;2022-08-19T01:04:05;13.83;;;12.63;;
68947;SDS011;55996;49.546;7.400;2022-08-19T01:06:32;13.60;;;12.40;;
68947;SDS011;55996;49.546;7.400;2022-08-19T01:08:59;14.30;;;12.80;;
68947;SDS011;55996;49.546;7.400;2022-08-19T01:11:26;13.60;;;12.23;;
68947;SDS011;55996;49.546;7.400;2022-08-19T01:13:53;14.10;;;12.63;;
68947;SDS011;55996;49.546;7.400;2022-08-19T01:16:20;13.73;;;12.43;;
68947;SDS011;55996;49.546;7.400;2022-08-19T01:18:48;13.47;;;12.27;;
68947;SDS011;55996;49.546;7.400;2022-08-19T01:21:48;14.30;;;12.90;;
68947;SDS011;55996;49.546;7.400;2022-08-19T01:24:08;13.37;;;12.20;;
68947;SDS011;55996;49.546;7.400;2022-08-19T01:26:37;13.87;;;12.67;;
68947;SDS011;55996;49.546;7.400;2022-08-19T01:29:08;13.83;;;12.53;;
68947;SDS011;55996;49.546;7.400;2022-08-19T01:31:34;13.60;;;12.47;;
68947;SDS011;55996;49.546;7.400;2022-08-19T01:34:02;12.83;;;11.63;;
68947;SDS011;55996;49.546;7.400;2022-08-19T01:36:39;14.17;;;12.97;;
68947;SDS011;55996;49.546;7.400;2022-08-19T01:39:13;13.43;;;12.23;;
68947;SDS011;55996;49.546;7.400;2022-08-19T01:41:45;13.53;;;12.43;;
68947;SDS011;55996;49.546;7.400;2022-08-19T01:44:11;13.47;;;12.00;;
68947;SDS011;55996;49.546;7.400;2022-08-19T01:46:37;13.43;;;12.07;;
68947;SDS011;55996;49.546;7.400;2022-08-19T01:49:04;13.37;;;11.97;;
68947;SDS011;55996;49.546;7.400;2022-08-19T01:51:30;13.80;;;12.40;;
68947;SDS011;55996;49.546;7.400;2022-08-19T01:53:56;12.90;;;11.63;;
68947;SDS011;55996;49.546;7.400;2022-08-19T01:56:22;12.50;;;11.20;;
68947;SDS011;55996;49.546;7.400;2022-08-19T01:58:55;12.63;;;11.53;;
68947;SDS011;55996;49.546;7.400;2022-08-19T02:01:25;12.03;;;10.90;;
68947;SDS011;55996;49.546;7.400;2022-08-19T02:03:51;12.67;;;11.47;;
68947;SDS011;55996;49.546;7.400;2022-08-19T02:06:19;12.70;;;11.60;;
68947;SDS011;55996;49.546;7.400;2022-08-19T02:08:44;13.13;;;11.93;;
68947;SDS011;55996;49.546;7.400;2022-08-19T02:11:17;12.67;;;11.57;;
68947;SDS011;55996;49.546;7.400;2022-08-19T02:13:48;13.10;;;10.87;;
68947;SDS011;55996;49.546;7.400;2022-08-19T02:16:15;12.63;;;11.33;;
68947;SDS011;55996;49.546;7.400;2022-08-19T02:18:42;12.90;;;11.73;;
68947;SDS011;55996;49.546;7.400;2022-08-19T02:21:07;13.00;;;11.90;;
68947;SDS011;55996;49.546;7.400;2022-08-19T02:23:32;13.97;;;12.57;;
68947;SDS011;55996;49.546;7.400;2022-08-19T02:25:58;13.77;;;12.47;;
68947;SDS011;55996;49.546;7.400;2022-08-19T02:28:23;13.93;;;12.00;;
68947;SDS011;55996;49.546;7.400;2022-08-19T02:30:49;13.03;;;11.93;;
68947;SDS011;55996;49.546;7.400;2022-08-19T02:33:15;13.60;;;12.20;;
68947;SDS011;55996;49.546;7.400;2022-08-19T02:35:42;13.27;;;12.00;;
68947;SDS011;55996;49.546;7.400;2022-08-19T02:38:09;13.80;;;12.50;;
68947;SDS011;55996;49.546;7.400;2022-08-19T02:40:54;13.70;;;12.50;;
68947;SDS011;55996;49.546;7.400;2022-08-19T02:43:24;13.43;;;12.23;;
68947;SDS011;55996;49.546;7.400;2022-08-19T02:45:51;14.03;;;12.67;;
68947;SDS011;55996;49.546;7.400;2022-08-19T02:48:21;13.63;;;12.33;;
68947;SDS011;55996;49.546;7.400;2022-08-19T02:50:49;13.40;;;12.00;;
68947;SDS011;55996;49.546;7.400;2022-08-19T02:53:20;12.47;;;11.27;;
68947;SDS011;55996;49.546;7.400;2022-08-19T02:55:47;13.77;;;12.47;;
68947;SDS011;55996;49.546;7.400;2022-08-19T02:58:14;13.10;;;11.90;;
68947;SDS011;55996;49.546;7.400;2022-08-19T03:00:44;13.80;;;12.40;;
68947;SDS011;55996;49.546;7.400;2022-08-19T03:03:20;12.83;;;11.73;;
68947;SDS011;55996;49.546;7.400;2022-08-19T03:05:46;13.80;;;12.33;;
68947;SDS011;55996;49.546;7.400;2022-08-19T03:08:12;12.67;;;11.57;;
68947;SDS011;55996;49.546;7.400;2022-08-19T03:10:45;13.07;;;11.93;;
68947;SDS011;55996;49.546;7.400;2022-08-19T03:13:16;12.80;;;11.57;;
68947;SDS011;55996;49.546;7.400;2022-08-19T03:15:43;13.13;;;11.83;;
68947;SDS011;55996;49.546;7.400;2022-08-19T03:18:11;12.50;;;11.20;;
68947;SDS011;55996;49.546;7.400;2022-08-19T03:20:55;12.20;;;11.10;;
68947;SDS011;55996;49.546;7.400;2022-08-19T03:23:21;12.93;;;11.13;;
68947;SDS011;55996;49.546;7.400;2022-08-19T03:25:48;11.60;;;10.50;;
68947;SDS011;55996;49.546;7.400;2022-08-19T03:28:15;12.07;;;10.97;;
68947;SDS011;55996;49.546;7.400;2022-08-19T03:30:42;11.87;;;10.80;;
68947;SDS011;55996;49.546;7.400;2022-08-19T03:33:21;13.07;;;11.23;;
68947;SDS011;55996;49.546;7.400;2022-08-19T03:35:47;12.27;;;11.07;;
68947;SDS011;55996;49.546;7.400;2022-08-19T03:38:13;12.67;;;11.40;;
68947;SDS011;55996;49.546;7.400;2022-08-19T03:40:38;12.33;;;11.17;;
68947;SDS011;55996;49.546;7.400;2022-08-19T03:43:03;11.87;;;10.70;;
68947;SDS011;55996;49.546;7.400;2022-08-19T03:45:30;11.43;;;10.33;;
68947;SDS011;55996;49.546;7.400;2022-08-19T03:47:56;10.90;;;9.90;;
68947;SDS011;55996;49.546;7.400;2022-08-19T03:50:21;12.33;;;11.17;;
68947;SDS011;55996;49.546;7.400;2022-08-19T03:52:50;12.43;;;11.10;;
68947;SDS011;55996;49.546;7.400;2022-08-19T03:55:17;11.37;;;10.17;;
68947;SDS011;55996;49.546;7.400;2022-08-19T03:57:43;13.13;;;10.60;;
68947;SDS011;55996;49.546;7.400;2022-08-19T04:00:10;11.40;;;10.20;;
68947;SDS011;55996;49.546;7.400;2022-08-19T04:02:36;10.83;;;9.60;;
68947;SDS011;55996;49.546;7.400;2022-08-19T04:05:01;11.60;;;10.40;;
68947;SDS011;55996;49.546;7.400;2022-08-19T04:07:27;12.67;;;10.23;;
68947;SDS011;55996;49.546;7.400;2022-08-19T04:09:53;10.47;;;9.47;;
68947;SDS011;55996;49.546;7.400;2022-08-19T04:12:18;10.93;;;9.93;;
68947;SDS011;55996;49.546;7.400;2022-08-19T04:14:45;11.53;;;10.33;;
68947;SDS011;55996;49.546;7.400;2022-08-19T04:17:10;10.47;;;9.47;;
68947;SDS011;55996;49.546;7.400;2022-08-19T04:19:37;10.67;;;9.67;;
68947;SDS011;55996;49.546;7.400;2022-08-19T04:22:03;10.67;;;9.57;;
68947;SDS011;55996;49.546;7.400;2022-08-19T04:24:29;10.40;;;9.30;;
68947;SDS011;55996;49.546;7.400;2022-08-19T04:26:55;11.33;;;10.23;;
68947;SDS011;55996;49.546;7.400;2022-08-19T04:29:22;10.20;;;9.30;;
68947;SDS011;55996;49.546;7.400;2022-08-19T04:31:50;10.93;;;9.43;;
68947;SDS011;55996;49.546;7.400;2022-08-19T04:34:18;10.23;;;9.23;;
68947;SDS011;55996;49.546;7.400;2022-08-19T04:36:47;9.30;;;8.40;;
68947;SDS011;55996;49.546;7.400;2022-08-19T04:39:16;11.40;;;10.20;;
68947;SDS011;55996;49.546;7.400;2022-08-19T04:41:44;11.73;;;10.07;;
68947;SDS011;55996;49.546;7.400;2022-08-19T04:44:29;12.33;;;9.50;;
68947;SDS011;55996;49.546;7.400;2022-08-19T04:46:59;12.60;;;11.17;;
68947;SDS011;55996;49.546;7.400;2022-08-19T04:49:25;10.07;;;9.17;;
68947;SDS011;55996;49.546;7.400;2022-08-19T04:51:51;11.03;;;9.90;;
68947;SDS011;55996;49.546;7.400;2022-08-19T04:54:19;11.13;;;9.93;;
68947;SDS011;55996;49.546;7.400;2022-08-19T04:56:47;10.60;;;9.50;;
68947;SDS011;55996;49.546;7.400;2022-08-19T04:59:17;11.93;;;9.70;;
68947;SDS011;55996;49.546;7.400;2022-08-19T05:01:45;11.03;;;9.93;;
68947;SDS011;55996;49.546;7.400;2022-08-19T05:04:15;10.97;;;9.93;;
68947;SDS011;55996;49.546;7.400;2022-08-19T05:06:44;9.90;;;9.00;;
68947;SDS011;55996;49.546;7.400;2022-08-19T05:09:12;10.23;;;9.33;;
68947;SDS011;55996;49.546;7.400;2022-08-19T05:11:37;10.93;;;9.93;;
68947;SDS011;55996;49.546;7.400;2022-08-19T05:14:04;10.80;;;9.70;;
68947;SDS011;55996;49.546;7.400;2022-08-19T05:16:31;10.13;;;9.23;;
68947;SDS011;55996;49.546;7.400;2022-08-19T05:18:56;10.57;;;9.57;;
68947;SDS011;55996;49.546;7.400;2022-08-19T05:21:41;10.87;;;9.90;;
68947;SDS011;55996;49.546;7.400;2022-08-19T05:24:26;10.73;;;9.67;;
68947;SDS011;55996;49.546;7.400;2022-08-19T05:26:53;12.03;;;9.47;;
68947;SDS011;55996;49.546;7.400;2022-08-19T05:29:21;10.03;;;9.13;;
68947;SDS011;55996;49.546;7.400;2022-08-19T05:31:48;10.23;;;9.23;;
68947;SDS011;55996;49.546;7.400;2022-08-19T05:34:14;10.50;;;9.50;;
68947;SDS011;55996;49.546;7.400;2022-08-19T05:36:42;9.50;;;8.50;;
68947;SDS011;55996;49.546;7.400;2022-08-19T05:39:10;10.60;;;9.50;;
68947;SDS011;55996;49.546;7.400;2022-08-19T05:41:41;9.60;;;8.60;;
68947;SDS011;55996;49.546;7.400;2022-08-19T05:44:07;9.80;;;8.63;;
68947;SDS011;55996;49.546;7.400;2022-08-19T05:46:35;9.80;;;8.80;;
68947;SDS011;55996;49.546;7.400;2022-08-19T05:49:02;8.53;;;7.73;;
68947;SDS011;55996;49.546;7.400;2022-08-19T05:51:29;9.23;;;8.23;;
68947;SDS011;55996;49.546;7.400;2022-08-19T05:53:55;9.27;;;8.30;;
68947;SDS011;55996;49.546;7.400;2022-08-19T05:56:20;9.13;;;8.33;;
68947;SDS011;55996;49.546;7.400;2022-08-19T05:58:46;9.60;;;8.67;;
68947;SDS011;55996;49.546;7.400;2022-08-19T06:01:13;11.20;;;9.00;;
68947;SDS011;55996;49.546;7.400;2022-08-19T06:03:42;9.57;;;8.60;;
68947;SDS011;55996;49.546;7.400;2022-08-19T06:06:09;9.70;;;6.80;;
68947;SDS011;55996;49.546;7.400;2022-08-19T06:08:36;8.30;;;7.50;;
68947;SDS011;55996;49.546;7.400;2022-08-19T06:12:03;7.33;;;6.73;;
68947;SDS011;55996;49.546;7.400;2022-08-19T06:14:02;8.90;;;8.10;;
68947;SDS011;55996;49.546;7.400;2022-08-19T06:16:34;8.93;;;8.18;;
68947;SDS011;55996;49.546;7.400;2022-08-19T06:19:03;9.85;;;8.95;;
68947;SDS011;55996;49.546;7.400;2022-08-19T06:21:31;9.27;;;8.38;;
68947;SDS011;55996;49.546;7.400;2022-08-19T06:23:58;9.32;;;8.40;;
68947;SDS011;55996;49.546;7.400;2022-08-19T06:26:24;9.13;;;8.32;;
68947;SDS011;55996;49.546;7.400;2022-08-19T06:28:51;9.43;;;8.52;;
68947;SDS011;55996;49.546;7.400;2022-08-19T06:31:18;10.73;;;9.63;;
68947;SDS011;55996;49.546;7.400;2022-08-19T06:33:49;10.32;;;9.32;;
68947;SDS011;55996;49.546;7.400;2022-08-19T06:36:25;9.65;;;8.82;;
68947;SDS011;55996;49.546;7.400;2022-08-19T06:38:54;9.65;;;8.85;;
68947;SDS011;55996;49.546;7.400;2022-08-19T06:41:22;9.75;;;8.85;;
68947;SDS011;55996;49.546;7.400;2022-08-19T06:43:47;9.40;;;8.43;;
68947;SDS011;55996;49.546;7.400;2022-08-19T06:46:14;10.30;;;9.40;;
68947;SDS011;55996;49.546;7.400;2022-08-19T06:48:41;10.27;;;9.38;;
68947;SDS011;55996;49.546;7.400;2022-08-19T06:51:07;10.52;;;9.55;;
68947;SDS011;55996;49.546;7.400;2022-08-19T06:53:33;10.15;;;9.13;;
68947;SDS011;55996;49.546;7.400;2022-08-19T06:55:59;10.32;;;9.32;;
68947;SDS011;55996;49.546;7.400;2022-08-19T06:58:30;6.80;;;6.10;;
68947;SDS011;55996;49.546;7.400;2022-08-19T07:01:00;6.85;;;6.25;;
68947;SDS011;55996;49.546;7.400;2022-08-19T07:03:29;6.03;;;5.45;;
68947;SDS011;55996;49.546;7.400;2022-08-19T07:06:18;5.78;;;5.28;;
68947;SDS011;55996;49.546;7.400;2022-08-19T07:08:45;6.75;;;5.47;;
68947;SDS011;55996;49.546;7.400;2022-08-19T07:11:13;6.05;;;5.55;;
68947;SDS011;55996;49.546;7.400;2022-08-19T07:13:43;6.93;;;6.20;;
68947;SDS011;55996;49.546;7.400;2022-08-19T07:16:16;6.68;;;6.07;;
68947;SDS011;55996;49.546;7.400;2022-08-19T07:18:44;7.20;;;6.50;;
68947;SDS011;55996;49.546;7.400;2022-08-19T07:21:16;5.90;;;5.38;;
68947;SDS011;55996;49.546;7.400;2022-08-19T07:23:46;8.15;;;5.95;;
68947;SDS011;55996;49.546;7.400;2022-08-19T07:26:13;6.15;;;5.65;;
68947;SDS011;55996;49.546;7.400;2022-08-19T07:28:42;7.78;;;7.03;;
68947;SDS011;55996;49.546;7.400;2022-08-19T07:31:11;7.50;;;6.78;;
68947;SDS011;55996;49.546;7.400;2022-08-19T07:33:38;7.68;;;6.90;;
68947;SDS011;55996;49.546;7.400;2022-08-19T07:36:06;7.35;;;6.50;;
68947;SDS011;55996;49.546;7.400;2022-08-19T07:38:36;7.97;;;7.18;;
68947;SDS011;55996;49.546;7.400;2022-08-19T07:41:04;10.95;;;8.63;;
68947;SDS011;55996;49.546;7.400;2022-08-19T07:43:29;9.80;;;7.43;;
68947;SDS011;55996;49.546;7.400;2022-08-19T07:45:55;11.18;;;10.05;;
68947;SDS011;55996;49.546;7.400;2022-08-19T07:48:24;13.18;;;11.70;;
68947;SDS011;55996;49.546;7.400;2022-08-19T07:50:55;14.10;;;11.55;;
68947;SDS011;55996;49.546;7.400;2022-08-19T07:53:23;9.18;;;8.38;;
68947;SDS011;55996;49.546;7.400;2022-08-19T07:55:49;9.80;;;8.80;;
68947;SDS011;55996;49.546;7.400;2022-08-19T07:58:18;10.52;;;9.52;;
68947;SDS011;55996;49.546;7.400;2022-08-19T08:00:46;9.45;;;8.55;;
68947;SDS011;55996;49.546;7.400;2022-08-19T08:03:13;10.05;;;9.15;;
68947;SDS011;55996;49.546;7.400;2022-08-19T08:05:40;10.77;;;9.75;;
68947;SDS011;55996;49.546;7.400;2022-08-19T08:08:24;11.73;;;10.70;;
68947;SDS011;55996;49.546;7.400;2022-08-19T08:11:08;11.45;;;10.35;;
68947;SDS011;55996;49.546;7.400;2022-08-19T08:13:34;13.40;;;12.20;;
68947;SDS011;55996;49.546;7.400;2022-08-19T08:16:00;12.73;;;11.52;;
68947;SDS011;55996;49.546;7.400;2022-08-19T08:18:26;14.88;;;12.68;;
68947;SDS011;55996;49.546;7.400;2022-08-19T08:20:52;10.27;;;9.27;;
68947;SDS011;55996;49.546;7.400;2022-08-19T08:23:18;11.18;;;9.98;;
68947;SDS011;55996;49.546;7.400;2022-08-19T08:25:56;10.70;;;9.43;;
68947;SDS011;55996;49.546;7.400;2022-08-19T08:28:23;9.25;;;8.43;;
68947;SDS011;55996;49.546;7.400;2022-08-19T08:30:49;9.27;;;8.38;;
68947;SDS011;55996;49.546;7.400;2022-08-19T08:33:19;9.38;;;8.52;;
68947;SDS011;55996;49.546;7.400;2022-08-19T08:35:46;7.35;;;6.65;;
68947;SDS011;55996;49.546;7.400;2022-08-19T08:38:13;7.93;;;7.18;;
68947;SDS011;55996;49.546;7.400;2022-08-19T08:46:01;7.10;;;6.43;;
68947;SDS011;55996;49.546;7.400;2022-08-19T08:48:35;6.68;;;6.07;;
68947;SDS011;55996;49.546;7.400;2022-08-19T08:51:07;5.80;;;5.30;;
68947;SDS011;55996;49.546;7.400;2022-08-19T08:53:36;6.15;;;5.43;;
68947;SDS011;55996;49.546;7.400;2022-08-19T08:56:04;5.75;;;5.20;;
68947;SDS011;55996;49.546;7.400;2022-08-19T08:58:36;5.53;;;5.03;;
68947;SDS011;55996;49.546;7.400;2022-08-19T09:01:10;5.85;;;5.35;;
68947;SDS011;55996;49.546;7.400;2022-08-19T09:03:37;5.57;;;4.80;;
68947;SDS011;55996;49.546;7.400;2022-08-19T09:06:11;5.35;;;4.85;;
68947;SDS011;55996;49.546;7.400;2022-08-19T09:08:48;5.50;;;4.78;;
68947;SDS011;55996;49.546;7.400;2022-08-19T09:11:19;5.25;;;4.18;;
68947;SDS011;55996;49.546;7.400;2022-08-19T09:16:16;5.22;;;4.60;;
68947;SDS011;55996;49.546;7.400;2022-08-19T09:18:47;4.55;;;4.15;;
68947;SDS011;55996;49.546;7.400;2022-08-19T09:21:17;4.53;;;4.13;;
68947;SDS011;55996;49.546;7.400;2022-08-19T09:23:44;4.43;;;4.03;;
68947;SDS011;55996;49.546;7.400;2022-08-19T09:26:11;4.18;;;3.78;;
68947;SDS011;55996;49.546;7.400;2022-08-19T09:28:40;5.30;;;4.47;;
68947;SDS011;55996;49.546;7.400;2022-08-19T09:31:17;4.75;;;4.30;;
68947;SDS011;55996;49.546;7.400;2022-08-19T09:33:51;3.80;;;3.50;;
68947;SDS011;55996;49.546;7.400;2022-08-19T09:36:21;4.30;;;3.90;;
68947;SDS011;55996;49.546;7.400;2022-08-19T09:38:50;4.15;;;3.80;;
68947;SDS011;55996;49.546;7.400;2022-08-19T09:41:17;3.80;;;3.42;;
68947;SDS011;55996;49.546;7.400;2022-08-19T09:43:46;2.90;;;2.70;;
68947;SDS011;55996;49.546;7.400;2022-08-19T09:46:14;2.85;;;2.65;;
68947;SDS011;55996;49.546;7.400;2022-08-19T09:48:41;2.97;;;2.67;;
68947;SDS011;55996;49.546;7.400;2022-08-19T09:51:12;2.85;;;2.65;;
68947;SDS011;55996;49.546;7.400;2022-08-19T09:53:41;3.08;;;2.88;;
68947;SDS011;55996;49.546;7.400;2022-08-19T09:56:08;3.55;;;2.70;;
68947;SDS011;55996;49.546;7.400;2022-08-19T09:58:35;3.22;;;2.95;;
68947;SDS011;55996;49.546;7.400;2022-08-19T10:01:01;3.00;;;2.80;;
68947;SDS011;55996;49.546;7.400;2022-08-19T10:03:29;3.55;;;3.25;;
68947;SDS011;55996;49.546;7.400;2022-08-19T10:05:57;3.30;;;3.00;;
68947;SDS011;55996;49.546;7.400;2022-08-19T10:08:28;4.50;;;3.20;;
68947;SDS011;55996;49.546;7.400;2022-08-19T10:10:59;3.70;;;2.95;;
68947;SDS011;55996;49.546;7.400;2022-08-19T10:13:26;3.63;;;3.33;;
68947;SDS011;55996;49.546;7.400;2022-08-19T10:15:55;4.53;;;3.08;;
68947;SDS011;55996;49.546;7.400;2022-08-19T10:18:26;3.75;;;3.35;;
68947;SDS011;55996;49.546;7.400;2022-08-19T10:20:52;3.60;;;3.30;;
68947;SDS011;55996;49.546;7.400;2022-08-19T10:23:27;3.75;;;3.45;;
68947;SDS011;55996;49.546;7.400;2022-08-19T10:25:58;4.07;;;3.67;;
68947;SDS011;55996;49.546;7.400;2022-08-19T10:28:24;3.80;;;3.30;;
68947;SDS011;55996;49.546;7.400;2022-08-19T10:30:50;3.67;;;3.38;;
68947;SDS011;55996;49.546;7.400;2022-08-19T10:33:15;3.80;;;3.50;;
68947;SDS011;55996;49.546;7.400;2022-08-19T10:35:41;3.72;;;3.40;;
68947;SDS011;55996;49.546;7.400;2022-08-19T10:38:06;4.70;;;4.20;;
68947;SDS011;55996;49.546;7.400;2022-08-19T10:40:32;5.20;;;3.88;;
68947;SDS011;55996;49.546;7.400;2022-08-19T10:42:57;4.90;;;4.28;;
68947;SDS011;55996;49.546;7.400;2022-08-19T10:45:23;4.15;;;3.80;;
68947;SDS011;55996;49.546;7.400;2022-08-19T10:47:50;4.15;;;3.85;;
68947;SDS011;55996;49.546;7.400;2022-08-19T10:50:18;4.20;;;3.90;;
68947;SDS011;55996;49.546;7.400;2022-08-19T10:53:06;4.95;;;4.55;;
68947;SDS011;55996;49.546;7.400;2022-08-19T10:55:35;4.88;;;4.40;;
68947;SDS011;55996;49.546;7.400;2022-08-19T10:58:20;4.63;;;4.22;;
68947;SDS011;55996;49.546;7.400;2022-08-19T11:00:54;5.18;;;4.05;;
68947;SDS011;55996;49.546;7.400;2022-08-19T11:03:22;4.63;;;4.22;;
68947;SDS011;55996;49.546;7.400;2022-08-19T11:06:01;4.32;;;3.92;;
68947;SDS011;55996;49.546;7.400;2022-08-19T11:08:29;4.15;;;3.85;;
68947;SDS011;55996;49.546;7.400;2022-08-19T11:10:57;5.47;;;4.95;;
68947;SDS011;55996;49.546;7.400;2022-08-19T11:13:26;4.90;;;4.50;;
68947;SDS011;55996;49.546;7.400;2022-08-19T11:15:57;5.10;;;4.43;;
68947;SDS011;55996;49.546;7.400;2022-08-19T11:18:24;5.07;;;4.63;;
68947;SDS011;55996;49.546;7.400;2022-08-19T11:20:49;4.60;;;4.30;;
68947;SDS011;55996;49.546;7.400;2022-08-19T11:23:15;5.00;;;4.50;;
68947;SDS011;55996;49.546;7.400;2022-08-19T11:25:40;5.55;;;4.88;;
68947;SDS011;55996;49.546;7.400;2022-08-19T11:28:06;4.80;;;4.30;;
68947;SDS011;55996;49.546;7.400;2022-08-19T11:30:31;5.05;;;4.65;;
68947;SDS011;55996;49.546;7.400;2022-08-19T11:32:58;5.20;;;4.68;;
68947;SDS011;55996;49.546;7.400;2022-08-19T11:35:25;5.20;;;4.80;;
68947;SDS011;55996;49.546;7.400;2022-08-19T11:37:51;5.65;;;4.90;;
68947;SDS011;55996;49.546;7.400;2022-08-19T11:40:16;4.75;;;4.35;;
68947;SDS011;55996;49.546;7.400;2022-08-19T11:42:41;4.60;;;4.20;;
68947;SDS011;55996;49.546;7.400;2022-08-19T11:45:22;6.97;;;4.65;;
68947;SDS011;55996;49.546;7.400;2022-08-19T11:47:49;4.97;;;4.30;;
68947;SDS011;55996;49.546;7.400;2022-08-19T11:50:15;4.63;;;4.07;;
68947;SDS011;55996;49.546;7.400;2022-08-19T11:52:41;5.03;;;4.00;;
68947;SDS011;55996;49.546;7.400;2022-08-19T11:55:07;5.30;;;4.05;;
68947;SDS011;55996;49.546;7.400;2022-08-19T11:57:33;5.97;;;4.38;;
68947;SDS011;55996;49.546;7.400;2022-08-19T11:59:59;4.45;;;4.07;;
68947;SDS011;55996;49.546;7.400;2022-08-19T12:02:24;4.32;;;3.95;;
68947;SDS011;55996;49.546;7.400;2022-08-19T12:04:50;5.00;;;4.50;;
68947;SDS011;55996;49.546;7.400;2022-08-19T12:07:15;5.25;;;4.72;;
68947;SDS011;55996;49.546;7.400;2022-08-19T12:09:41;5.47;;;4.65;;
68947;SDS011;55996;49.546;7.400;2022-08-19T12:12:07;4.90;;;4.50;;
68947;SDS011;55996;49.546;7.400;2022-08-19T12:14:34;5.10;;;4.70;;
68947;SDS011;55996;49.546;7.400;2022-08-19T12:17:00;5.35;;;4.95;;
68947;SDS011;55996;49.546;7.400;2022-08-19T12:19:27;5.82;;;5.35;;
68947;SDS011;55996;49.546;7.400;2022-08-19T12:21:58;4.72;;;4.32;;
68947;SDS011;55996;49.546;7.400;2022-08-19T12:24:25;4.43;;;4.13;;
68947;SDS011;55996;49.546;7.400;2022-08-19T12:26:51;4.80;;;4.40;;
68947;SDS011;55996;49.546;7.400;2022-08-19T12:29:16;6.22;;;4.63;;
68947;SDS011;55996;49.546;7.400;2022-08-19T12:31:42;5.22;;;4.72;;
68947;SDS011;55996;49.546;7.400;2022-08-19T12:34:08;5.00;;;4.50;;
68947;SDS011;55996;49.546;7.400;2022-08-19T12:36:34;5.03;;;4.60;;
68947;SDS011;55996;49.546;7.400;2022-08-19T12:38:59;4.68;;;4.20;;
68947;SDS011;55996;49.546;7.400;2022-08-19T12:41:25;4.65;;;3.90;;
68947;SDS011;55996;49.546;7.400;2022-08-19T12:43:51;4.15;;;3.85;;
68947;SDS011;55996;49.546;7.400;2022-08-19T12:46:17;4.78;;;4.15;;
68947;SDS011;55996;49.546;7.400;2022-08-19T12:48:44;4.50;;;4.10;;
68947;SDS011;55996;49.546;7.400;2022-08-19T12:51:15;4.75;;;4.30;;
68947;SDS011;55996;49.546;7.400;2022-08-19T12:53:41;4.57;;;4.18;;
68947;SDS011;55996;49.546;7.400;2022-08-19T12:56:08;5.63;;;4.60;;
68947;SDS011;55996;49.546;7.400;2022-08-19T12:58:35;4.22;;;3.90;;
68947;SDS011;55996;49.546;7.400;2022-08-19T13:01:10;4.65;;;3.60;;
68947;SDS011;55996;49.546;7.400;2022-08-19T13:03:37;4.35;;;3.92;;
68947;SDS011;55996;49.546;7.400;2022-08-19T13:06:03;4.63;;;3.63;;
68947;SDS011;55996;49.546;7.400;2022-08-19T13:08:29;5.18;;;3.50;;
68947;SDS011;55996;49.546;7.400;2022-08-19T13:10:54;5.35;;;3.72;;
68947;SDS011;55996;49.546;7.400;2022-08-19T13:13:20;6.20;;;4.00;;
68947;SDS011;55996;49.546;7.400;2022-08-19T13:15:46;5.88;;;4.10;;
68947;SDS011;55996;49.546;7.400;2022-08-19T13:18:12;7.72;;;4.35;;
68947;SDS011;55996;49.546;7.400;2022-08-19T13:20:39;6.63;;;4.20;;
68947;SDS011;55996;49.546;7.400;2022-08-19T13:23:05;4.78;;;4.38;;
68947;SDS011;55996;49.546;7.400;2022-08-19T13:25:31;4.63;;;4.15;;
68947;SDS011;55996;49.546;7.400;2022-08-19T13:27:58;5.57;;;4.15;;
68947;SDS011;55996;49.546;7.400;2022-08-19T13:30:24;4.88;;;3.83;;
68947;SDS011;55996;49.546;7.400;2022-08-19T13:33:08;3.95;;;3.55;;
68947;SDS011;55996;49.546;7.400;2022-08-19T13:35:37;4.60;;;4.20;;
68947;SDS011;55996;49.546;7.400;2022-08-19T13:38:04;4.88;;;4.07;;
68947;SDS011;55996;49.546;7.400;2022-08-19T13:40:31;4.55;;;4.25;;
68947;SDS011;55996;49.546;7.400;2022-08-19T13:42:58;4.70;;;4.30;;
68947;SDS011;55996;49.546;7.400;2022-08-19T13:45:24;5.00;;;4.55;;
68947;SDS011;55996;49.546;7.400;2022-08-19T13:47:53;4.78;;;4.38;;
68947;SDS011;55996;49.546;7.400;2022-08-19T13:50:22;4.82;;;4.43;;
68947;SDS011;55996;49.546;7.400;2022-08-19T13:52:51;5.63;;;4.50;;
68947;SDS011;55996;49.546;7.400;2022-08-19T13:55:18;4.85;;;4.45;;
68947;SDS011;55996;49.546;7.400;2022-08-19T13:57:44;5.07;;;4.57;;
68947;SDS011;55996;49.546;7.400;2022-08-19T14:00:12;4.85;;;4.47;;
68947;SDS011;55996;49.546;7.400;2022-08-19T14:02:42;4.80;;;4.40;;
68947;SDS011;55996;49.546;7.400;2022-08-19T14:05:10;5.18;;;4.72;;
68947;SDS011;55996;49.546;7.400;2022-08-19T14:07:38;5.30;;;4.80;;
68947;SDS011;55996;49.546;7.400;2022-08-19T14:10:04;6.68;;;4.50;;
68947;SDS011;55996;49.546;7.400;2022-08-19T14:12:31;5.60;;;4.57;;
68947;SDS011;55996;49.546;7.400;2022-08-19T14:14:57;6.72;;;4.53;;
68947;SDS011;55996;49.546;7.400;2022-08-19T14:17:23;7.25;;;4.80;;
68947;SDS011;55996;49.546;7.400;2022-08-19T14:19:49;5.15;;;4.75;;
68947;SDS011;55996;49.546;7.400;2022-08-19T14:22:20;5.25;;;4.75;;
68947;SDS011;55996;49.546;7.400;2022-08-19T14:24:46;5.50;;;5.00;;
68947;SDS011;55996;49.546;7.400;2022-08-19T14:27:12;5.32;;;4.82;;
68947;SDS011;55996;49.546;7.400;2022-08-19T14:29:38;7.13;;;4.32;;
68947;SDS011;55996;49.546;7.400;2022-08-19T14:32:03;7.18;;;5.45;;
68947;SDS011;55996;49.546;7.400;2022-08-19T14:34:29;6.43;;;5.20;;
68947;SDS011;55996;49.546;7.400;2022-08-19T14:36:56;5.57;;;5.07;;
68947;SDS011;55996;49.546;7.400;2022-08-19T14:39:22;5.95;;;5.38;;
68947;SDS011;55996;49.546;7.400;2022-08-19T14:41:47;6.22;;;5.70;;
68947;SDS011;55996;49.546;7.400;2022-08-19T14:44:14;5.80;;;5.13;;
68947;SDS011;55996;49.546;7.400;2022-08-19T14:46:39;7.32;;;5.82;;
68947;SDS011;55996;49.546;7.400;2022-08-19T14:49:05;6.60;;;5.75;;
68947;SDS011;55996;49.546;7.400;2022-08-19T14:51:32;6.63;;;6.00;;
68947;SDS011;55996;49.546;7.400;2022-08-19T14:53:57;6.00;;;5.50;;